sensor_id;sensor_type;location;lat;lon;timestamp;temperature;humidity
55711;DHT22;41612;51.994;5.880;2023-04-03T00:01:33;6.30;84.90
55711;DHT22;41612;51.994;5.880;2023-04-03T00:03:59;6.30;85.00
55711;DHT22;41612;51.994;5.880;2023-04-03T00:06:25;6.20;85.00
55711;DHT22;41612;51.994;5.880;2023-04-03T00:08:51;6.20;85.00
55711;DHT22;41612;51.994;5.880;2023-04-03T00:11:17;6.10;85.20
55711;DHT22;41612;51.994;5.880;2023-04-03T00:13:44;6.10;85.10
55711;DHT22;41612;51.994;5.880;2023-04-03T00:16:11;6.10;85.30
55711;DHT22;41612;51.994;5.880;2023-04-03T00:18:38;6.10;85.30
55711;DHT22;41612;51.994;5.880;2023-04-03T00:21:05;6.00;85.20
55711;DHT22;41612;51.994;5.880;2023-04-03T00:23:31;6.00;85.40
55711;DHT22;41612;51.994;5.880;2023-04-03T00:25:57;5.90;85.50
55711;DHT22;41612;51.994;5.880;2023-04-03T00:28:23;5.80;85.70
55711;DHT22;41612;51.994;5.880;2023-04-03T00:30:49;5.80;85.60
55711;DHT22;41612;51.994;5.880;2023-04-03T00:33:15;5.70;85.60
55711;DHT22;41612;51.994;5.880;2023-04-03T00:35:41;5.80;85.80
55711;DHT22;41612;51.994;5.880;2023-04-03T00:38:07;5.80;85.80
55711;DHT22;41612;51.994;5.880;2023-04-03T00:40:36;5.70;85.80
55711;DHT22;41612;51.994;5.880;2023-04-03T00:43:10;5.70;85.80
55711;DHT22;41612;51.994;5.880;2023-04-03T00:45:42;5.60;85.80
55711;DHT22;41612;51.994;5.880;2023-04-03T00:48:13;5.60;85.70
55711;DHT22;41612;51.994;5.880;2023-04-03T00:50:41;5.50;85.30
55711;DHT22;41612;51.994;5.880;2023-04-03T00:53:11;5.50;85.80
55711;DHT22;41612;51.994;5.880;2023-04-03T00:55:38;5.50;86.00
55711;DHT22;41612;51.994;5.880;2023-04-03T00:58:08;5.50;86.20
55711;DHT22;41612;51.994;5.880;2023-04-03T01:00:37;5.50;86.00
55711;DHT22;41612;51.994;5.880;2023-04-03T01:03:04;5.50;86.10
55711;DHT22;41612;51.994;5.880;2023-04-03T01:05:30;5.50;86.20
55711;DHT22;41612;51.994;5.880;2023-04-03T01:07:59;5.50;86.10
55711;DHT22;41612;51.994;5.880;2023-04-03T01:10:25;5.50;86.10
55711;DHT22;41612;51.994;5.880;2023-04-03T01:12:51;5.50;86.10
55711;DHT22;41612;51.994;5.880;2023-04-03T01:15:27;5.40;86.10
55711;DHT22;41612;51.994;5.880;2023-04-03T01:18:00;5.40;85.90
55711;DHT22;41612;51.994;5.880;2023-04-03T01:28:18;5.30;86.30
55711;DHT22;41612;51.994;5.880;2023-04-03T01:33:48;5.20;86.10
55711;DHT22;41612;51.994;5.880;2023-04-03T01:36:17;5.20;86.20
55711;DHT22;41612;51.994;5.880;2023-04-03T01:38:44;5.20;86.40
55711;DHT22;41612;51.994;5.880;2023-04-03T01:41:09;5.20;86.50
55711;DHT22;41612;51.994;5.880;2023-04-03T01:43:36;5.10;86.40
55711;DHT22;41612;51.994;5.880;2023-04-03T01:46:02;5.10;86.40
55711;DHT22;41612;51.994;5.880;2023-04-03T01:48:27;5.00;86.30
55711;DHT22;41612;51.994;5.880;2023-04-03T01:50:54;5.10;86.60
55711;DHT22;41612;51.994;5.880;2023-04-03T01:53:20;5.10;86.60
55711;DHT22;41612;51.994;5.880;2023-04-03T01:55:46;5.10;86.30
55711;DHT22;41612;51.994;5.880;2023-04-03T01:58:11;5.10;86.20
55711;DHT22;41612;51.994;5.880;2023-04-03T02:00:37;5.10;86.50
55711;DHT22;41612;51.994;5.880;2023-04-03T02:03:03;5.10;86.70
55711;DHT22;41612;51.994;5.880;2023-04-03T02:05:28;5.10;86.60
55711;DHT22;41612;51.994;5.880;2023-04-03T02:07:54;5.10;86.60
55711;DHT22;41612;51.994;5.880;2023-04-03T02:10:20;5.10;86.70
55711;DHT22;41612;51.994;5.880;2023-04-03T02:12:46;5.10;86.40
55711;DHT22;41612;51.994;5.880;2023-04-03T02:15:12;5.10;86.60
55711;DHT22;41612;51.994;5.880;2023-04-03T02:17:37;5.00;86.50
55711;DHT22;41612;51.994;5.880;2023-04-03T02:20:04;5.00;86.50
55711;DHT22;41612;51.994;5.880;2023-04-03T02:22:30;5.00;86.50
55711;DHT22;41612;51.994;5.880;2023-04-03T02:24:56;5.00;86.70
55711;DHT22;41612;51.994;5.880;2023-04-03T02:27:22;5.00;86.50
55711;DHT22;41612;51.994;5.880;2023-04-03T02:29:48;4.90;86.60
55711;DHT22;41612;51.994;5.880;2023-04-03T02:32:14;5.00;86.80
55711;DHT22;41612;51.994;5.880;2023-04-03T02:34:40;4.90;86.50
55711;DHT22;41612;51.994;5.880;2023-04-03T02:37:07;4.90;86.70
55711;DHT22;41612;51.994;5.880;2023-04-03T02:39:33;4.90;86.60
55711;DHT22;41612;51.994;5.880;2023-04-03T02:42:00;4.90;86.60
55711;DHT22;41612;51.994;5.880;2023-04-03T02:44:27;4.90;86.50
55711;DHT22;41612;51.994;5.880;2023-04-03T02:46:52;4.80;86.30
55711;DHT22;41612;51.994;5.880;2023-04-03T02:49:18;4.80;86.30
55711;DHT22;41612;51.994;5.880;2023-04-03T02:51:44;4.80;86.70
55711;DHT22;41612;51.994;5.880;2023-04-03T02:54:10;4.80;86.70
55711;DHT22;41612;51.994;5.880;2023-04-03T02:56:40;4.80;86.60
55711;DHT22;41612;51.994;5.880;2023-04-03T02:59:06;4.80;86.70
55711;DHT22;41612;51.994;5.880;2023-04-03T03:01:34;4.80;86.80
55711;DHT22;41612;51.994;5.880;2023-04-03T03:04:01;4.70;86.60
55711;DHT22;41612;51.994;5.880;2023-04-03T03:06:27;4.70;86.50
55711;DHT22;41612;51.994;5.880;2023-04-03T03:08:54;4.60;86.60
55711;DHT22;41612;51.994;5.880;2023-04-03T03:11:19;4.60;86.80
55711;DHT22;41612;51.994;5.880;2023-04-03T03:13:46;4.70;86.80
55711;DHT22;41612;51.994;5.880;2023-04-03T03:16:12;4.60;86.60
55711;DHT22;41612;51.994;5.880;2023-04-03T03:18:38;4.50;86.60
55711;DHT22;41612;51.994;5.880;2023-04-03T03:21:03;4.50;86.90
55711;DHT22;41612;51.994;5.880;2023-04-03T03:23:30;4.50;86.80
55711;DHT22;41612;51.994;5.880;2023-04-03T03:26:06;4.50;86.80
55711;DHT22;41612;51.994;5.880;2023-04-03T03:28:34;4.50;87.00
55711;DHT22;41612;51.994;5.880;2023-04-03T03:31:02;4.50;87.10
55711;DHT22;41612;51.994;5.880;2023-04-03T03:33:29;4.40;86.90
55711;DHT22;41612;51.994;5.880;2023-04-03T03:35:55;4.30;86.90
55711;DHT22;41612;51.994;5.880;2023-04-03T03:38:21;4.40;87.30
55711;DHT22;41612;51.994;5.880;2023-04-03T03:40:48;4.30;87.10
55711;DHT22;41612;51.994;5.880;2023-04-03T03:43:16;4.30;87.20
55711;DHT22;41612;51.994;5.880;2023-04-03T03:45:42;4.30;87.30
55711;DHT22;41612;51.994;5.880;2023-04-03T03:48:08;4.20;87.30
55711;DHT22;41612;51.994;5.880;2023-04-03T03:50:35;4.20;87.40
55711;DHT22;41612;51.994;5.880;2023-04-03T03:53:01;4.20;87.50
55711;DHT22;41612;51.994;5.880;2023-04-03T03:55:27;4.20;87.30
55711;DHT22;41612;51.994;5.880;2023-04-03T03:57:56;4.20;87.30
55711;DHT22;41612;51.994;5.880;2023-04-03T04:00:22;4.10;87.30
55711;DHT22;41612;51.994;5.880;2023-04-03T04:02:53;4.10;87.50
55711;DHT22;41612;51.994;5.880;2023-04-03T04:05:21;4.10;87.60
55711;DHT22;41612;51.994;5.880;2023-04-03T04:07:47;4.10;87.40
55711;DHT22;41612;51.994;5.880;2023-04-03T04:10:13;4.00;87.50
55711;DHT22;41612;51.994;5.880;2023-04-03T04:12:40;4.00;87.60
55711;DHT22;41612;51.994;5.880;2023-04-03T04:15:06;4.00;87.70
55711;DHT22;41612;51.994;5.880;2023-04-03T04:17:32;4.00;87.70
55711;DHT22;41612;51.994;5.880;2023-04-03T04:20:01;4.00;87.60
55711;DHT22;41612;51.994;5.880;2023-04-03T04:22:28;3.90;87.60
55711;DHT22;41612;51.994;5.880;2023-04-03T04:24:54;3.90;87.60
55711;DHT22;41612;51.994;5.880;2023-04-03T04:27:20;3.90;87.70
55711;DHT22;41612;51.994;5.880;2023-04-03T04:29:46;3.90;87.80
55711;DHT22;41612;51.994;5.880;2023-04-03T04:32:11;3.90;87.90
55711;DHT22;41612;51.994;5.880;2023-04-03T04:34:37;3.90;88.00
55711;DHT22;41612;51.994;5.880;2023-04-03T04:37:03;3.80;87.90
55711;DHT22;41612;51.994;5.880;2023-04-03T04:39:29;3.80;87.90
55711;DHT22;41612;51.994;5.880;2023-04-03T04:41:57;3.80;87.90
55711;DHT22;41612;51.994;5.880;2023-04-03T04:44:24;3.80;88.00
55711;DHT22;41612;51.994;5.880;2023-04-03T04:46:50;3.70;88.00
55711;DHT22;41612;51.994;5.880;2023-04-03T04:49:16;3.70;87.90
55711;DHT22;41612;51.994;5.880;2023-04-03T04:51:42;3.60;87.80
55711;DHT22;41612;51.994;5.880;2023-04-03T04:54:09;3.60;87.90
55711;DHT22;41612;51.994;5.880;2023-04-03T04:56:35;3.60;87.90
55711;DHT22;41612;51.994;5.880;2023-04-03T04:59:01;3.50;88.00
55711;DHT22;41612;51.994;5.880;2023-04-03T05:01:27;3.50;88.20
55711;DHT22;41612;51.994;5.880;2023-04-03T05:03:59;3.50;88.30
55711;DHT22;41612;51.994;5.880;2023-04-03T05:06:25;3.50;88.30
55711;DHT22;41612;51.994;5.880;2023-04-03T05:08:52;3.50;88.30
55711;DHT22;41612;51.994;5.880;2023-04-03T05:11:19;3.50;88.10
55711;DHT22;41612;51.994;5.880;2023-04-03T05:13:48;3.50;88.20
55711;DHT22;41612;51.994;5.880;2023-04-03T05:16:14;3.40;88.10
55711;DHT22;41612;51.994;5.880;2023-04-03T05:18:40;3.40;88.00
55711;DHT22;41612;51.994;5.880;2023-04-03T05:21:15;3.40;88.00
55711;DHT22;41612;51.994;5.880;2023-04-03T05:23:44;3.30;88.10
55711;DHT22;41612;51.994;5.880;2023-04-03T05:26:10;3.30;88.30
55711;DHT22;41612;51.994;5.880;2023-04-03T05:28:35;3.30;88.40
55711;DHT22;41612;51.994;5.880;2023-04-03T05:31:02;3.40;88.50
55711;DHT22;41612;51.994;5.880;2023-04-03T05:33:33;3.40;88.50
55711;DHT22;41612;51.994;5.880;2023-04-03T05:36:06;3.40;88.40
55711;DHT22;41612;51.994;5.880;2023-04-03T05:38:36;3.40;88.20
55711;DHT22;41612;51.994;5.880;2023-04-03T05:41:02;3.40;88.20
55711;DHT22;41612;51.994;5.880;2023-04-03T05:43:28;3.40;88.10
55711;DHT22;41612;51.994;5.880;2023-04-03T05:45:54;3.40;87.70
55711;DHT22;41612;51.994;5.880;2023-04-03T05:48:23;3.40;87.90
55711;DHT22;41612;51.994;5.880;2023-04-03T05:50:49;3.40;87.90
55711;DHT22;41612;51.994;5.880;2023-04-03T05:53:28;3.40;87.80
55711;DHT22;41612;51.994;5.880;2023-04-03T05:55:59;3.50;87.80
55711;DHT22;41612;51.994;5.880;2023-04-03T05:58:25;3.40;87.80
55711;DHT22;41612;51.994;5.880;2023-04-03T06:00:52;3.40;87.60
55711;DHT22;41612;51.994;5.880;2023-04-03T06:03:33;3.40;87.70
55711;DHT22;41612;51.994;5.880;2023-04-03T06:06:00;3.40;87.50
55711;DHT22;41612;51.994;5.880;2023-04-03T06:08:27;3.50;87.60
55711;DHT22;41612;51.994;5.880;2023-04-03T06:10:53;3.50;87.50
55711;DHT22;41612;51.994;5.880;2023-04-03T06:13:18;3.50;87.50
55711;DHT22;41612;51.994;5.880;2023-04-03T06:15:44;3.50;87.30
55711;DHT22;41612;51.994;5.880;2023-04-03T06:18:10;3.50;87.20
55711;DHT22;41612;51.994;5.880;2023-04-03T06:20:36;3.50;87.20
55711;DHT22;41612;51.994;5.880;2023-04-03T06:23:02;3.50;87.30
55711;DHT22;41612;51.994;5.880;2023-04-03T06:25:27;3.50;87.00
55711;DHT22;41612;51.994;5.880;2023-04-03T06:27:53;3.50;87.00
55711;DHT22;41612;51.994;5.880;2023-04-03T06:30:21;3.50;86.80
55711;DHT22;41612;51.994;5.880;2023-04-03T06:32:46;3.50;86.50
55711;DHT22;41612;51.994;5.880;2023-04-03T06:35:12;3.50;86.70
55711;DHT22;41612;51.994;5.880;2023-04-03T06:37:40;3.60;86.80
55711;DHT22;41612;51.994;5.880;2023-04-03T06:40:07;3.70;86.60
55711;DHT22;41612;51.994;5.880;2023-04-03T06:42:32;3.80;86.50
55711;DHT22;41612;51.994;5.880;2023-04-03T06:45:10;3.80;86.20
55711;DHT22;41612;51.994;5.880;2023-04-03T06:47:37;3.90;85.90
55711;DHT22;41612;51.994;5.880;2023-04-03T06:50:02;3.90;85.70
55711;DHT22;41612;51.994;5.880;2023-04-03T06:52:28;4.00;85.50
55711;DHT22;41612;51.994;5.880;2023-04-03T06:54:54;4.10;85.40
55711;DHT22;41612;51.994;5.880;2023-04-03T06:57:23;4.20;85.20
55711;DHT22;41612;51.994;5.880;2023-04-03T06:59:49;4.30;84.60
55711;DHT22;41612;51.994;5.880;2023-04-03T07:02:15;4.40;84.40
55711;DHT22;41612;51.994;5.880;2023-04-03T07:04:41;4.40;84.20
55711;DHT22;41612;51.994;5.880;2023-04-03T07:07:07;4.50;84.20
55711;DHT22;41612;51.994;5.880;2023-04-03T07:09:33;4.60;83.70
55711;DHT22;41612;51.994;5.880;2023-04-03T07:11:58;4.60;83.40
55711;DHT22;41612;51.994;5.880;2023-04-03T07:14:24;4.60;83.10
55711;DHT22;41612;51.994;5.880;2023-04-03T07:16:50;4.70;82.70
55711;DHT22;41612;51.994;5.880;2023-04-03T07:19:16;4.70;82.50
55711;DHT22;41612;51.994;5.880;2023-04-03T07:21:44;4.70;82.30
55711;DHT22;41612;51.994;5.880;2023-04-03T07:24:10;4.70;82.50
55711;DHT22;41612;51.994;5.880;2023-04-03T07:26:36;4.70;81.90
55711;DHT22;41612;51.994;5.880;2023-04-03T07:29:05;4.80;82.00
55711;DHT22;41612;51.994;5.880;2023-04-03T07:31:30;4.80;81.70
55711;DHT22;41612;51.994;5.880;2023-04-03T07:33:56;4.80;80.80
55711;DHT22;41612;51.994;5.880;2023-04-03T07:36:22;4.80;81.30
55711;DHT22;41612;51.994;5.880;2023-04-03T07:38:48;4.90;81.10
55711;DHT22;41612;51.994;5.880;2023-04-03T07:41:15;4.90;80.70
55711;DHT22;41612;51.994;5.880;2023-04-03T07:43:45;5.00;80.50
55711;DHT22;41612;51.994;5.880;2023-04-03T07:46:11;5.00;80.40
55711;DHT22;41612;51.994;5.880;2023-04-03T07:48:38;5.20;79.90
55711;DHT22;41612;51.994;5.880;2023-04-03T07:51:04;5.20;79.90
55711;DHT22;41612;51.994;5.880;2023-04-03T07:53:30;5.20;79.30
55711;DHT22;41612;51.994;5.880;2023-04-03T07:55:57;5.20;78.90
55711;DHT22;41612;51.994;5.880;2023-04-03T07:58:24;5.30;79.30
55711;DHT22;41612;51.994;5.880;2023-04-03T08:00:50;5.30;79.20
55711;DHT22;41612;51.994;5.880;2023-04-03T08:03:16;5.30;79.00
55711;DHT22;41612;51.994;5.880;2023-04-03T08:05:44;5.30;78.60
55711;DHT22;41612;51.994;5.880;2023-04-03T08:08:12;5.40;78.60
55711;DHT22;41612;51.994;5.880;2023-04-03T08:10:39;5.50;77.90
55711;DHT22;41612;51.994;5.880;2023-04-03T08:13:06;5.50;75.10
55711;DHT22;41612;51.994;5.880;2023-04-03T08:15:32;5.70;77.00
55711;DHT22;41612;51.994;5.880;2023-04-03T08:17:58;5.70;75.30
55711;DHT22;41612;51.994;5.880;2023-04-03T08:20:25;5.80;76.10
55711;DHT22;41612;51.994;5.880;2023-04-03T08:22:51;5.80;75.30
55711;DHT22;41612;51.994;5.880;2023-04-03T08:25:16;5.90;75.00
55711;DHT22;41612;51.994;5.880;2023-04-03T08:27:43;5.90;75.00
55711;DHT22;41612;51.994;5.880;2023-04-03T08:30:12;6.10;74.60
55711;DHT22;41612;51.994;5.880;2023-04-03T08:32:38;6.20;74.90
55711;DHT22;41612;51.994;5.880;2023-04-03T08:35:07;6.30;73.90
55711;DHT22;41612;51.994;5.880;2023-04-03T08:37:35;6.50;73.90
55711;DHT22;41612;51.994;5.880;2023-04-03T08:40:03;6.50;73.80
55711;DHT22;41612;51.994;5.880;2023-04-03T08:48:11;6.70;72.50
55711;DHT22;41612;51.994;5.880;2023-04-03T08:50:41;6.80;71.50
55711;DHT22;41612;51.994;5.880;2023-04-03T08:53:22;6.90;66.60
55711;DHT22;41612;51.994;5.880;2023-04-03T08:55:55;7.00;68.50
55711;DHT22;41612;51.994;5.880;2023-04-03T08:58:29;7.10;68.20
55711;DHT22;41612;51.994;5.880;2023-04-03T09:01:03;7.20;62.00
55711;DHT22;41612;51.994;5.880;2023-04-03T09:03:36;7.30;58.20
55711;DHT22;41612;51.994;5.880;2023-04-03T09:06:23;7.50;58.90
55711;DHT22;41612;51.994;5.880;2023-04-03T09:11:56;7.90;64.80
55711;DHT22;41612;51.994;5.880;2023-04-03T09:22:20;8.50;55.40
55711;DHT22;41612;51.994;5.880;2023-04-03T09:24:52;8.70;58.90
55711;DHT22;41612;51.994;5.880;2023-04-03T09:27:19;8.80;45.50
55711;DHT22;41612;51.994;5.880;2023-04-03T09:29:45;9.00;58.60
55711;DHT22;41612;51.994;5.880;2023-04-03T09:32:26;9.10;54.20
55711;DHT22;41612;51.994;5.880;2023-04-03T09:34:54;9.40;51.20
55711;DHT22;41612;51.994;5.880;2023-04-03T09:37:40;9.60;53.10
55711;DHT22;41612;51.994;5.880;2023-04-03T09:40:37;9.80;52.30
55711;DHT22;41612;51.994;5.880;2023-04-03T09:43:26;9.80;45.70
55711;DHT22;41612;51.994;5.880;2023-04-03T09:45:56;10.00;46.90
55711;DHT22;41612;51.994;5.880;2023-04-03T09:48:50;10.20;49.50
55711;DHT22;41612;51.994;5.880;2023-04-03T09:51:16;10.40;47.40
55711;DHT22;41612;51.994;5.880;2023-04-03T09:53:44;10.50;45.00
55711;DHT22;41612;51.994;5.880;2023-04-03T09:58:44;10.70;39.70
55711;DHT22;41612;51.994;5.880;2023-04-03T10:01:29;10.80;37.60
55711;DHT22;41612;51.994;5.880;2023-04-03T10:04:21;11.10;47.40
55711;DHT22;41612;51.994;5.880;2023-04-03T10:06:53;11.30;39.30
55711;DHT22;41612;51.994;5.880;2023-04-03T10:12:12;11.60;46.50
55711;DHT22;41612;51.994;5.880;2023-04-03T10:14:59;11.70;44.80
55711;DHT22;41612;51.994;5.880;2023-04-03T10:17:32;11.80;38.30
55711;DHT22;41612;51.994;5.880;2023-04-03T10:20:47;11.70;35.60
55711;DHT22;41612;51.994;5.880;2023-04-03T10:23:18;11.80;46.70
55711;DHT22;41612;51.994;5.880;2023-04-03T10:36:37;12.20;35.50
55711;DHT22;41612;51.994;5.880;2023-04-03T10:48:07;12.50;43.00
55711;DHT22;41612;51.994;5.880;2023-04-03T10:54:18;12.90;40.30
55711;DHT22;41612;51.994;5.880;2023-04-03T11:04:59;13.30;42.20
55711;DHT22;41612;51.994;5.880;2023-04-03T11:07:33;13.30;43.80
55711;DHT22;41612;51.994;5.880;2023-04-03T11:10:35;13.40;38.50
55711;DHT22;41612;51.994;5.880;2023-04-03T11:16:03;13.50;41.30
55711;DHT22;41612;51.994;5.880;2023-04-03T11:18:47;13.30;45.00
55711;DHT22;41612;51.994;5.880;2023-04-03T11:21:33;13.30;33.00
55711;DHT22;41612;51.994;5.880;2023-04-03T11:24:03;13.20;38.80
55711;DHT22;41612;51.994;5.880;2023-04-03T11:26:38;13.30;31.60
55711;DHT22;41612;51.994;5.880;2023-04-03T11:29:15;13.20;37.90
55711;DHT22;41612;51.994;5.880;2023-04-03T11:34:40;13.80;41.00
55711;DHT22;41612;51.994;5.880;2023-04-03T11:37:38;14.10;33.50
55711;DHT22;41612;51.994;5.880;2023-04-03T11:43:07;14.30;32.80
55711;DHT22;41612;51.994;5.880;2023-04-03T11:45:36;14.60;28.40
55711;DHT22;41612;51.994;5.880;2023-04-03T11:53:46;15.70;38.00
55711;DHT22;41612;51.994;5.880;2023-04-03T12:01:51;18.00;26.70
55711;DHT22;41612;51.994;5.880;2023-04-03T12:04:21;18.50;25.60
55711;DHT22;41612;51.994;5.880;2023-04-03T12:07:14;18.70;34.10
55711;DHT22;41612;51.994;5.880;2023-04-03T12:09:54;19.20;30.00
55711;DHT22;41612;51.994;5.880;2023-04-03T12:12:35;20.10;28.60
55711;DHT22;41612;51.994;5.880;2023-04-03T12:15:41;21.10;30.00
55711;DHT22;41612;51.994;5.880;2023-04-03T12:20:59;22.10;25.30
55711;DHT22;41612;51.994;5.880;2023-04-03T12:24:22;21.60;22.80
55711;DHT22;41612;51.994;5.880;2023-04-03T12:27:25;21.60;28.70
55711;DHT22;41612;51.994;5.880;2023-04-03T12:30:12;22.30;25.20
55711;DHT22;41612;51.994;5.880;2023-04-03T12:35:34;23.60;24.20
55711;DHT22;41612;51.994;5.880;2023-04-03T12:46:44;24.00;25.20
55711;DHT22;41612;51.994;5.880;2023-04-03T12:49:26;24.00;26.00
55711;DHT22;41612;51.994;5.880;2023-04-03T12:51:55;24.10;29.00
55711;DHT22;41612;51.994;5.880;2023-04-03T12:56:49;25.20;26.30
55711;DHT22;41612;51.994;5.880;2023-04-03T13:02:34;25.80;28.40
55711;DHT22;41612;51.994;5.880;2023-04-03T13:05:09;26.30;25.10
55711;DHT22;41612;51.994;5.880;2023-04-03T13:07:39;26.70;20.20
55711;DHT22;41612;51.994;5.880;2023-04-03T13:12:34;26.50;23.00
55711;DHT22;41612;51.994;5.880;2023-04-03T13:15:16;26.70;27.20
55711;DHT22;41612;51.994;5.880;2023-04-03T13:17:45;27.00;27.90
55711;DHT22;41612;51.994;5.880;2023-04-03T13:20:27;26.90;27.20
55711;DHT22;41612;51.994;5.880;2023-04-03T13:23:07;27.50;23.00
55711;DHT22;41612;51.994;5.880;2023-04-03T13:25:37;27.80;26.30
55711;DHT22;41612;51.994;5.880;2023-04-03T13:28:07;27.70;20.40
55711;DHT22;41612;51.994;5.880;2023-04-03T13:30:35;27.30;17.90
55711;DHT22;41612;51.994;5.880;2023-04-03T13:33:22;26.30;21.60
55711;DHT22;41612;51.994;5.880;2023-04-03T13:35:57;26.60;22.30
55711;DHT22;41612;51.994;5.880;2023-04-03T13:38:35;27.00;27.60
55711;DHT22;41612;51.994;5.880;2023-04-03T13:41:20;27.50;18.40
55711;DHT22;41612;51.994;5.880;2023-04-03T13:43:55;28.20;25.00
55711;DHT22;41612;51.994;5.880;2023-04-03T13:46:27;29.00;22.40
55711;DHT22;41612;51.994;5.880;2023-04-03T13:48:55;29.20;22.30
55711;DHT22;41612;51.994;5.880;2023-04-03T13:51:25;29.00;22.00
55711;DHT22;41612;51.994;5.880;2023-04-03T13:53:56;29.30;18.50
55711;DHT22;41612;51.994;5.880;2023-04-03T13:56:37;29.60;18.20
55711;DHT22;41612;51.994;5.880;2023-04-03T14:01:42;29.70;22.70
55711;DHT22;41612;51.994;5.880;2023-04-03T14:04:21;29.90;19.10
55711;DHT22;41612;51.994;5.880;2023-04-03T14:06:49;29.80;16.80
55711;DHT22;41612;51.994;5.880;2023-04-03T14:09:16;30.00;19.60
55711;DHT22;41612;51.994;5.880;2023-04-03T14:11:42;30.50;15.30
55711;DHT22;41612;51.994;5.880;2023-04-03T14:14:21;30.60;20.30
55711;DHT22;41612;51.994;5.880;2023-04-03T14:16:54;30.70;22.10
55711;DHT22;41612;51.994;5.880;2023-04-03T14:19:25;30.90;16.10
55711;DHT22;41612;51.994;5.880;2023-04-03T14:21:53;31.00;19.50
55711;DHT22;41612;51.994;5.880;2023-04-03T14:24:20;31.20;20.50
55711;DHT22;41612;51.994;5.880;2023-04-03T14:26:51;31.10;14.80
55711;DHT22;41612;51.994;5.880;2023-04-03T14:29:18;30.10;19.00
55711;DHT22;41612;51.994;5.880;2023-04-03T14:31:45;29.90;23.90
55711;DHT22;41612;51.994;5.880;2023-04-03T14:34:15;30.40;22.20
55711;DHT22;41612;51.994;5.880;2023-04-03T14:36:42;30.60;21.60
55711;DHT22;41612;51.994;5.880;2023-04-03T14:39:16;30.60;16.70
55711;DHT22;41612;51.994;5.880;2023-04-03T14:41:42;30.40;22.70
55711;DHT22;41612;51.994;5.880;2023-04-03T14:44:09;30.00;19.70
55711;DHT22;41612;51.994;5.880;2023-04-03T14:46:41;29.40;21.00
55711;DHT22;41612;51.994;5.880;2023-04-03T14:49:19;29.20;23.90
55711;DHT22;41612;51.994;5.880;2023-04-03T14:51:47;28.80;21.80
55711;DHT22;41612;51.994;5.880;2023-04-03T14:54:21;29.10;17.90
55711;DHT22;41612;51.994;5.880;2023-04-03T14:56:51;28.80;18.80
55711;DHT22;41612;51.994;5.880;2023-04-03T14:59:17;28.90;25.50
55711;DHT22;41612;51.994;5.880;2023-04-03T15:01:45;29.30;24.20
55711;DHT22;41612;51.994;5.880;2023-04-03T15:04:17;29.70;23.00
55711;DHT22;41612;51.994;5.880;2023-04-03T15:06:43;30.30;22.60
55711;DHT22;41612;51.994;5.880;2023-04-03T15:09:25;30.50;20.50
55711;DHT22;41612;51.994;5.880;2023-04-03T15:11:53;30.40;24.60
55711;DHT22;41612;51.994;5.880;2023-04-03T15:14:19;30.60;21.80
55711;DHT22;41612;51.994;5.880;2023-04-03T15:16:48;30.80;22.00
55711;DHT22;41612;51.994;5.880;2023-04-03T15:19:14;31.00;23.70
55711;DHT22;41612;51.994;5.880;2023-04-03T15:21:40;30.80;23.20
55711;DHT22;41612;51.994;5.880;2023-04-03T15:24:06;30.50;16.60
55711;DHT22;41612;51.994;5.880;2023-04-03T15:26:32;30.30;23.90
55711;DHT22;41612;51.994;5.880;2023-04-03T15:28:58;30.20;23.40
55711;DHT22;41612;51.994;5.880;2023-04-03T15:31:24;30.20;24.60
55711;DHT22;41612;51.994;5.880;2023-04-03T15:33:50;30.00;18.00
55711;DHT22;41612;51.994;5.880;2023-04-03T15:36:15;30.00;23.40
55711;DHT22;41612;51.994;5.880;2023-04-03T15:38:41;30.00;22.30
55711;DHT22;41612;51.994;5.880;2023-04-03T15:41:07;30.20;23.60
55711;DHT22;41612;51.994;5.880;2023-04-03T15:43:33;30.30;23.20
55711;DHT22;41612;51.994;5.880;2023-04-03T15:45:59;30.20;21.10
55711;DHT22;41612;51.994;5.880;2023-04-03T15:48:26;29.80;19.60
55711;DHT22;41612;51.994;5.880;2023-04-03T15:50:53;29.60;21.90
55711;DHT22;41612;51.994;5.880;2023-04-03T15:53:19;29.50;19.00
55711;DHT22;41612;51.994;5.880;2023-04-03T15:55:44;29.20;19.00
55711;DHT22;41612;51.994;5.880;2023-04-03T15:58:10;29.00;21.20
55711;DHT22;41612;51.994;5.880;2023-04-03T16:00:37;28.90;25.90
55711;DHT22;41612;51.994;5.880;2023-04-03T16:03:11;28.90;25.90
55711;DHT22;41612;51.994;5.880;2023-04-03T16:05:38;29.00;20.60
55711;DHT22;41612;51.994;5.880;2023-04-03T16:08:05;28.70;21.00
55711;DHT22;41612;51.994;5.880;2023-04-03T16:10:32;28.70;25.60
55711;DHT22;41612;51.994;5.880;2023-04-03T16:12:58;28.80;24.60
55711;DHT22;41612;51.994;5.880;2023-04-03T16:15:24;28.80;20.90
55711;DHT22;41612;51.994;5.880;2023-04-03T16:17:50;29.00;25.00
55711;DHT22;41612;51.994;5.880;2023-04-03T16:20:16;29.20;20.90
55711;DHT22;41612;51.994;5.880;2023-04-03T16:22:44;29.30;25.70
55711;DHT22;41612;51.994;5.880;2023-04-03T16:25:10;29.40;24.00
55711;DHT22;41612;51.994;5.880;2023-04-03T16:27:36;29.20;20.30
55711;DHT22;41612;51.994;5.880;2023-04-03T16:30:02;27.40;22.90
55711;DHT22;41612;51.994;5.880;2023-04-03T16:32:31;25.00;28.60
55711;DHT22;41612;51.994;5.880;2023-04-03T16:34:58;22.60;30.40
55711;DHT22;41612;51.994;5.880;2023-04-03T16:37:24;20.70;30.00
55711;DHT22;41612;51.994;5.880;2023-04-03T16:40:00;19.20;38.20
55711;DHT22;41612;51.994;5.880;2023-04-03T16:42:28;18.00;42.80
55711;DHT22;41612;51.994;5.880;2023-04-03T16:44:54;17.10;46.90
55711;DHT22;41612;51.994;5.880;2023-04-03T16:47:20;16.50;47.90
55711;DHT22;41612;51.994;5.880;2023-04-03T16:49:46;16.00;47.50
55711;DHT22;41612;51.994;5.880;2023-04-03T16:52:12;15.70;51.00
55711;DHT22;41612;51.994;5.880;2023-04-03T16:54:38;15.50;51.90
55711;DHT22;41612;51.994;5.880;2023-04-03T16:57:04;15.10;51.30
55711;DHT22;41612;51.994;5.880;2023-04-03T16:59:33;14.80;51.80
55711;DHT22;41612;51.994;5.880;2023-04-03T17:01:58;14.50;51.20
55711;DHT22;41612;51.994;5.880;2023-04-03T17:04:24;14.30;52.20
55711;DHT22;41612;51.994;5.880;2023-04-03T17:06:51;14.10;55.90
55711;DHT22;41612;51.994;5.880;2023-04-03T17:09:33;14.00;56.80
55711;DHT22;41612;51.994;5.880;2023-04-03T17:11:59;13.90;56.70
55711;DHT22;41612;51.994;5.880;2023-04-03T17:14:28;13.80;53.50
55711;DHT22;41612;51.994;5.880;2023-04-03T17:16:54;13.70;53.50
55711;DHT22;41612;51.994;5.880;2023-04-03T17:19:20;13.50;54.40
55711;DHT22;41612;51.994;5.880;2023-04-03T17:21:46;13.40;57.00
55711;DHT22;41612;51.994;5.880;2023-04-03T17:24:13;13.40;59.40
55711;DHT22;41612;51.994;5.880;2023-04-03T17:26:40;13.30;58.80
55711;DHT22;41612;51.994;5.880;2023-04-03T17:29:07;13.20;59.80
55711;DHT22;41612;51.994;5.880;2023-04-03T17:31:35;13.10;56.00
55711;DHT22;41612;51.994;5.880;2023-04-03T17:34:01;13.00;59.40
55711;DHT22;41612;51.994;5.880;2023-04-03T17:36:29;13.00;61.40
55711;DHT22;41612;51.994;5.880;2023-04-03T17:38:55;12.80;60.10
55711;DHT22;41612;51.994;5.880;2023-04-03T17:41:21;12.80;59.60
55711;DHT22;41612;51.994;5.880;2023-04-03T17:43:56;12.70;61.30